Time;durP1;ratioP1;P1;durP2;ratioP2;P2;SDS_P1;SDS_P2;PMS_P1;PMS_P2;Temp;Humidity;BMP_temperature;BMP_pressure;BME280_temperature;BME280_humidity;BME280_pressure;Samples;Min_cycle;Max_cycle;Signal;HPM_P1;HPM_P2
2022/10/14 00:00:21;;;;;;;0.10;0.10;;;;;;;;;;5030467;28;20929;-79
2022/10/14 00:02:47;;;;;;;0.10;0.10;;;;;;;;;;5014983;28;20426;-79
2022/10/14 00:05:13;;;;;;;0.10;0.10;;;;;;;;;;5020291;28;20474;-80
2022/10/14 00:07:39;;;;;;;0.10;0.10;;;;;;;;;;5027128;28;20745;-80
2022/10/14 00:10:05;;;;;;;0.10;0.10;;;;;;;;;;5015731;28;20434;-80
2022/10/14 00:12:32;;;;;;;0.10;0.10;;;;;;;;;;5031474;28;20436;-80
2022/10/14 00:14:58;;;;;;;0.03;0.03;;;;;;;;;;5028532;28;20431;-80
2022/10/14 00:17:24;;;;;;;0.10;0.10;;;;;;;;;;5031011;28;20774;-80
2022/10/14 00:19:50;;;;;;;0.00;0.00;;;;;;;;;;5031832;28;20897;-80
2022/10/14 00:22:16;;;;;;;0.10;0.10;;;;;;;;;;5016479;28;20427;-80
2022/10/14 00:24:42;;;;;;;0.10;0.10;;;;;;;;;;5016662;28;20427;-79
2022/10/14 00:27:09;;;;;;;0.20;0.20;;;;;;;;;;5009713;28;20513;-79
2022/10/14 00:29:35;;;;;;;0.10;0.10;;;;;;;;;;5005670;28;20992;-80
2022/10/14 00:32:01;;;;;;;0.20;0.20;;;;;;;;;;5014256;28;20434;-80
2022/10/14 00:34:27;;;;;;;0.00;0.00;;;;;;;;;;5012543;28;20909;-79
2022/10/14 00:36:53;;;;;;;0.10;0.10;;;;;;;;;;5032211;28;20897;-80
2022/10/14 00:39:19;;;;;;;0.10;0.10;;;;;;;;;;5010208;28;20433;-80
2022/10/14 00:41:46;;;;;;;0.25;0.15;;;;;;;;;;5009874;28;20434;-80
2022/10/14 00:44:15;;;;;;;0.10;0.10;;;;;;;;;;5007072;28;20489;-80
2022/10/14 00:46:42;;;;;;;0.13;0.13;;;;;;;;;;5007715;28;20437;-80
2022/10/14 00:49:21;;;;;;;0.10;0.10;;;;;;;;;;5005808;28;20832;-80
2022/10/14 00:52:10;;;;;;;0.00;0.00;;;;;;;;;;5003536;28;20436;-80
2022/10/14 00:54:42;;;;;;;0.10;0.10;;;;;;;;;;5010258;28;20486;-80
2022/10/14 00:57:08;;;;;;;0.10;0.10;;;;;;;;;;5012211;28;20856;-79
2022/10/14 00:59:35;;;;;;;0.10;0.10;;;;;;;;;;4995153;28;20430;-80
2022/10/14 01:02:01;;;;;;;0.10;0.10;;;;;;;;;;5007629;28;20428;-80
2022/10/14 01:04:27;;;;;;;0.10;0.10;;;;;;;;;;4993386;28;20504;-80
2022/10/14 01:07:16;;;;;;;0.00;0.00;;;;;;;;;;5012985;28;20417;-79
2022/10/14 01:09:45;;;;;;;0.00;0.00;;;;;;;;;;5008847;28;20512;-80
2022/10/14 01:12:23;;;;;;;0.10;0.10;;;;;;;;;;4997816;28;20430;-80
2022/10/14 01:14:58;;;;;;;0.10;0.10;;;;;;;;;;5004205;28;20438;-80
2022/10/14 01:17:30;;;;;;;0.10;0.10;;;;;;;;;;5016702;28;20787;-80
2022/10/14 01:20:07;;;;;;;0.00;0.00;;;;;;;;;;5011709;28;20439;-80
2022/10/14 01:22:44;;;;;;;0.10;0.10;;;;;;;;;;5011623;28;20476;-80
2022/10/14 01:25:25;;;;;;;0.10;0.10;;;;;;;;;;5008799;28;20826;-80
2022/10/14 01:28:18;;;;;;;0.10;0.10;;;;;;;;;;4998657;28;20899;-80
2022/10/14 01:30:45;;;;;;;0.20;0.20;;;;;;;;;;5008476;28;20445;-80
2022/10/14 01:33:23;;;;;;;0.05;0.05;;;;;;;;;;5011961;28;20435;-80
2022/10/14 01:35:55;;;;;;;0.00;0.00;;;;;;;;;;5010741;28;20437;-80
2022/10/14 01:38:36;;;;;;;0.00;0.00;;;;;;;;;;5009488;28;20469;-80
2022/10/14 01:41:04;;;;;;;0.10;0.10;;;;;;;;;;5006988;28;20455;-80
2022/10/14 01:43:31;;;;;;;0.10;0.10;;;;;;;;;;4990747;28;20450;-80
2022/10/14 01:45:58;;;;;;;0.20;0.10;;;;;;;;;;5011820;28;20497;-80
2022/10/14 01:48:27;;;;;;;0.10;0.10;;;;;;;;;;5011875;28;20916;-80
2022/10/14 01:50:54;;;;;;;0.10;0.10;;;;;;;;;;5009262;28;20479;-80
2022/10/14 01:53:25;;;;;;;0.05;0.05;;;;;;;;;;5004770;28;20441;-80
2022/10/14 01:55:53;;;;;;;0.05;0.05;;;;;;;;;;5006502;28;20439;-80
2022/10/14 01:58:21;;;;;;;0.00;0.00;;;;;;;;;;5008912;28;20472;-80
2022/10/14 02:00:47;;;;;;;0.10;0.10;;;;;;;;;;5009613;28;20439;-79
2022/10/14 02:03:13;;;;;;;0.10;0.10;;;;;;;;;;5010535;28;20463;-79
2022/10/14 02:05:39;;;;;;;0.10;0.10;;;;;;;;;;5011133;28;20543;-78
2022/10/14 02:08:20;;;;;;;0.20;0.20;;;;;;;;;;4994287;28;20836;-80
2022/10/14 02:10:46;;;;;;;0.10;0.10;;;;;;;;;;5004795;28;20510;-80
2022/10/14 02:13:31;;;;;;;0.00;0.00;;;;;;;;;;5010649;28;20522;-80
2022/10/14 02:16:00;;;;;;;0.10;0.10;;;;;;;;;;5008625;28;20428;-79
2022/10/14 02:18:26;;;;;;;0.10;0.10;;;;;;;;;;5005129;28;20792;-80
2022/10/14 02:20:52;;;;;;;0.20;0.20;;;;;;;;;;5012102;28;20493;-80
2022/10/14 02:23:20;;;;;;;0.10;0.10;;;;;;;;;;5007499;28;20499;-80
2022/10/14 02:25:47;;;;;;;0.10;0.10;;;;;;;;;;5002944;28;20424;-80
2022/10/14 02:28:16;;;;;;;0.10;0.10;;;;;;;;;;5009788;28;20935;-80
2022/10/14 02:30:43;;;;;;;0.00;0.00;;;;;;;;;;5008416;28;20433;-80
2022/10/14 02:33:10;;;;;;;0.10;0.10;;;;;;;;;;5010060;28;20424;-80
2022/10/14 02:35:36;;;;;;;0.10;0.10;;;;;;;;;;5008815;28;21486;-79
2022/10/14 02:38:02;;;;;;;0.08;0.08;;;;;;;;;;5011712;28;20457;-80
2022/10/14 02:40:28;;;;;;;0.10;0.10;;;;;;;;;;5030861;28;20431;-80
2022/10/14 02:42:54;;;;;;;0.10;0.10;;;;;;;;;;5017327;28;20433;-79
2022/10/14 02:45:23;;;;;;;0.10;0.10;;;;;;;;;;5012013;28;20441;-79
2022/10/14 02:47:49;;;;;;;0.10;0.10;;;;;;;;;;5025385;28;20423;-80
2022/10/14 02:50:17;;;;;;;0.20;0.20;;;;;;;;;;5017347;28;20429;-80
2022/10/14 02:52:43;;;;;;;0.10;0.10;;;;;;;;;;5013095;28;20938;-80
2022/10/14 02:55:10;;;;;;;0.00;0.00;;;;;;;;;;5026203;28;20430;-80
2022/10/14 02:57:36;;;;;;;0.10;0.10;;;;;;;;;;5030266;28;20469;-79
2022/10/14 03:00:03;;;;;;;0.10;0.10;;;;;;;;;;5000278;28;20427;-80
2022/10/14 03:02:29;;;;;;;0.10;0.10;;;;;;;;;;5028910;28;20502;-80
2022/10/14 03:04:56;;;;;;;0.10;0.10;;;;;;;;;;5008126;28;20433;-79
2022/10/14 03:07:22;;;;;;;0.10;0.10;;;;;;;;;;5007507;28;20814;-78
2022/10/14 03:09:48;;;;;;;0.10;0.10;;;;;;;;;;5014862;28;20423;-78
2022/10/14 03:12:14;;;;;;;0.10;0.10;;;;;;;;;;5025438;28;20454;-80
2022/10/14 03:14:41;;;;;;;0.10;0.10;;;;;;;;;;4990493;28;20450;-81
2022/10/14 03:17:07;;;;;;;0.10;0.10;;;;;;;;;;5023859;28;20429;-80
2022/10/14 03:19:33;;;;;;;0.00;0.00;;;;;;;;;;5023543;28;20906;-79
2022/10/14 03:21:59;;;;;;;0.10;0.10;;;;;;;;;;5008313;28;20703;-79
2022/10/14 03:24:25;;;;;;;0.10;0.10;;;;;;;;;;5026987;28;20485;-79
2022/10/14 03:26:51;;;;;;;0.10;0.10;;;;;;;;;;5024140;28;20489;-79
2022/10/14 03:29:17;;;;;;;0.10;0.10;;;;;;;;;;5025247;28;20905;-80
2022/10/14 03:31:43;;;;;;;0.08;0.08;;;;;;;;;;5025086;28;20504;-79
2022/10/14 03:34:10;;;;;;;0.10;0.10;;;;;;;;;;5022185;28;20454;-78
2022/10/14 03:36:36;;;;;;;0.10;0.10;;;;;;;;;;5019877;28;20428;-77
2022/10/14 03:39:02;;;;;;;0.10;0.10;;;;;;;;;;5008133;28;20507;-82
2022/10/14 03:41:28;;;;;;;0.10;0.10;;;;;;;;;;5009396;28;20438;-78
2022/10/14 03:43:54;;;;;;;0.10;0.10;;;;;;;;;;5008128;28;20501;-78
2022/10/14 03:46:20;;;;;;;0.10;0.10;;;;;;;;;;5025177;28;20431;-81
2022/10/14 03:48:46;;;;;;;0.10;0.10;;;;;;;;;;5008813;28;20540;-82
2022/10/14 03:51:13;;;;;;;0.10;0.10;;;;;;;;;;5005159;28;21780;-81
2022/10/14 03:53:39;;;;;;;0.50;0.50;;;;;;;;;;5026132;28;20539;-81
2022/10/14 03:56:05;;;;;;;0.10;0.10;;;;;;;;;;4997154;28;20755;-79
2022/10/14 03:58:31;;;;;;;0.10;0.10;;;;;;;;;;5031636;28;20493;-81
2022/10/14 04:00:57;;;;;;;0.10;0.10;;;;;;;;;;5003715;28;20571;-80
2022/10/14 04:03:23;;;;;;;0.10;0.10;;;;;;;;;;5005311;28;20777;-80
2022/10/14 04:05:49;;;;;;;0.32;0.32;;;;;;;;;;5012862;28;20505;-81
2022/10/14 04:08:15;;;;;;;0.10;0.10;;;;;;;;;;5031833;28;20468;-81
2022/10/14 04:10:41;;;;;;;0.10;0.10;;;;;;;;;;5031487;28;20902;-81
2022/10/14 04:13:07;;;;;;;0.20;0.20;;;;;;;;;;5003657;28;20940;-81
2022/10/14 04:15:35;;;;;;;0.10;0.10;;;;;;;;;;5012306;28;20955;-80
2022/10/14 04:18:01;;;;;;;0.00;0.00;;;;;;;;;;4994277;28;20431;-80
2022/10/14 04:20:27;;;;;;;0.10;0.10;;;;;;;;;;5025077;28;20917;-81
2022/10/14 04:22:53;;;;;;;0.10;0.10;;;;;;;;;;5030968;28;20510;-80
2022/10/14 04:25:20;;;;;;;0.00;0.00;;;;;;;;;;5013609;28;20473;-79
2022/10/14 04:27:46;;;;;;;0.10;0.10;;;;;;;;;;5010793;28;20835;-79
2022/10/14 04:30:12;;;;;;;0.10;0.10;;;;;;;;;;4999173;28;20514;-81
2022/10/14 04:32:38;;;;;;;0.10;0.10;;;;;;;;;;5030298;28;20541;-81
2022/10/14 04:35:05;;;;;;;0.15;0.15;;;;;;;;;;5010204;28;20454;-81
2022/10/14 04:37:31;;;;;;;0.10;0.10;;;;;;;;;;5006819;28;20426;-80
2022/10/14 04:39:57;;;;;;;0.10;0.10;;;;;;;;;;5013232;28;20434;-80
2022/10/14 04:42:23;;;;;;;0.10;0.10;;;;;;;;;;5031289;28;20427;-81
2022/10/14 04:44:49;;;;;;;0.10;0.10;;;;;;;;;;5028350;28;20431;-80
2022/10/14 04:47:15;;;;;;;0.10;0.10;;;;;;;;;;5026888;28;20431;-80
2022/10/14 04:49:41;;;;;;;0.15;0.15;;;;;;;;;;5022574;28;20424;-81
2022/10/14 04:52:07;;;;;;;0.00;0.00;;;;;;;;;;5015683;28;20494;-81
2022/10/14 04:54:33;;;;;;;0.10;0.10;;;;;;;;;;5030000;28;20898;-81
2022/10/14 04:56:59;;;;;;;0.10;0.10;;;;;;;;;;5033372;28;20979;-80
2022/10/14 04:59:25;;;;;;;0.10;0.10;;;;;;;;;;5033046;28;20906;-81
2022/10/14 05:01:51;;;;;;;0.20;0.20;;;;;;;;;;5033980;28;20421;-80
2022/10/14 05:04:18;;;;;;;0.10;0.10;;;;;;;;;;5016985;28;20423;-81
2022/10/14 05:06:44;;;;;;;0.10;0.10;;;;;;;;;;5033610;28;20541;-80
2022/10/14 05:09:10;;;;;;;0.10;0.10;;;;;;;;;;5016673;28;20698;-81
2022/10/14 05:11:36;;;;;;;0.50;0.50;;;;;;;;;;5023325;28;20415;-81
2022/10/14 05:14:02;;;;;;;1.60;0.50;;;;;;;;;;5015296;28;20765;-80
2022/10/14 05:16:28;;;;;;;0.20;0.20;;;;;;;;;;5033796;28;20426;-80
2022/10/14 05:18:54;;;;;;;0.10;0.10;;;;;;;;;;5016108;28;20434;-80
2022/10/14 05:21:20;;;;;;;0.10;0.10;;;;;;;;;;5034010;28;20430;-79
2022/10/14 05:23:46;;;;;;;0.10;0.10;;;;;;;;;;4999976;28;20403;-80
2022/10/14 05:26:12;;;;;;;0.10;0.10;;;;;;;;;;5033388;28;20410;-80
2022/10/14 05:28:38;;;;;;;1.10;0.30;;;;;;;;;;5014608;28;20431;-80
2022/10/14 05:31:04;;;;;;;0.10;0.10;;;;;;;;;;5014714;28;20434;-80
2022/10/14 05:33:31;;;;;;;0.10;0.10;;;;;;;;;;5033857;28;20427;-80
2022/10/14 05:35:57;;;;;;;0.10;0.10;;;;;;;;;;5033374;28;20422;-80
2022/10/14 05:38:23;;;;;;;0.10;0.10;;;;;;;;;;5015666;28;20423;-81
2022/10/14 05:40:56;;;;;;;0.10;0.10;;;;;;;;;;5023738;28;20435;-80
2022/10/14 05:43:25;;;;;;;0.10;0.10;;;;;;;;;;5017721;28;20442;-80
2022/10/14 05:45:51;;;;;;;0.10;0.10;;;;;;;;;;5018220;28;20482;-80
2022/10/14 05:48:18;;;;;;;0.10;0.10;;;;;;;;;;5023778;28;20427;-80
2022/10/14 05:50:44;;;;;;;0.10;0.10;;;;;;;;;;5033428;28;20446;-80
2022/10/14 05:53:11;;;;;;;0.30;0.30;;;;;;;;;;5032732;28;20498;-80
2022/10/14 05:55:37;;;;;;;0.10;0.10;;;;;;;;;;5032269;28;20427;-80
2022/10/14 05:58:03;;;;;;;0.20;0.20;;;;;;;;;;5019695;28;20424;-80
2022/10/14 06:00:29;;;;;;;0.30;0.30;;;;;;;;;;5022070;28;20778;-80
2022/10/14 06:02:58;;;;;;;0.10;0.10;;;;;;;;;;4997466;28;20427;-79
2022/10/14 06:05:24;;;;;;;0.10;0.10;;;;;;;;;;5012552;28;20922;-80
2022/10/14 06:07:52;;;;;;;0.10;0.10;;;;;;;;;;5012285;28;20452;-80
2022/10/14 06:10:18;;;;;;;0.10;0.10;;;;;;;;;;5014829;28;20441;-81
2022/10/14 06:12:44;;;;;;;0.10;0.10;;;;;;;;;;5031554;28;20939;-80
2022/10/14 06:15:10;;;;;;;0.30;0.30;;;;;;;;;;5024102;28;20475;-81
2022/10/14 06:17:36;;;;;;;0.30;0.30;;;;;;;;;;4996202;28;20998;-80
2022/10/14 06:20:02;;;;;;;0.10;0.10;;;;;;;;;;5017815;28;20434;-80
2022/10/14 06:22:29;;;;;;;0.25;0.25;;;;;;;;;;5032892;28;20446;-80
2022/10/14 06:24:55;;;;;;;0.10;0.10;;;;;;;;;;5031817;28;20786;-79
2022/10/14 06:27:21;;;;;;;0.10;0.10;;;;;;;;;;5017972;28;20448;-79
2022/10/14 06:29:47;;;;;;;0.10;0.10;;;;;;;;;;5014508;28;20459;-80
2022/10/14 06:32:13;;;;;;;0.10;0.10;;;;;;;;;;5030888;28;20419;-81
2022/10/14 06:34:39;;;;;;;0.10;0.10;;;;;;;;;;5019604;28;20431;-81
2022/10/14 06:37:06;;;;;;;0.10;0.10;;;;;;;;;;5011700;28;20496;-80
2022/10/14 06:39:32;;;;;;;0.10;0.10;;;;;;;;;;5030749;28;20437;-80
2022/10/14 06:41:58;;;;;;;0.10;0.10;;;;;;;;;;5028342;28;20469;-80
2022/10/14 06:44:24;;;;;;;0.20;0.20;;;;;;;;;;5021926;28;20428;-81
2022/10/14 06:46:50;;;;;;;0.20;0.20;;;;;;;;;;5032341;28;20422;-81
2022/10/14 06:49:16;;;;;;;0.10;0.10;;;;;;;;;;5012915;28;20920;-81
2022/10/14 06:51:42;;;;;;;0.20;0.20;;;;;;;;;;4997861;28;20435;-81
2022/10/14 06:54:08;;;;;;;0.70;0.70;;;;;;;;;;5018796;28;20431;-81
2022/10/14 06:56:34;;;;;;;0.10;0.10;;;;;;;;;;5013808;28;20503;-81
2022/10/14 06:59:00;;;;;;;0.10;0.10;;;;;;;;;;5013604;28;20452;-81
2022/10/14 07:01:27;;;;;;;0.10;0.10;;;;;;;;;;4996598;28;20489;-80
2022/10/14 07:03:53;;;;;;;0.10;0.10;;;;;;;;;;5031861;28;20418;-80
2022/10/14 07:06:19;;;;;;;1.20;0.50;;;;;;;;;;5010910;28;20800;-79
2022/10/14 07:08:45;;;;;;;0.20;0.20;;;;;;;;;;5031491;28;20510;-81
2022/10/14 07:11:11;;;;;;;0.40;0.30;;;;;;;;;;5013561;28;20936;-82
2022/10/14 07:13:38;;;;;;;0.30;0.30;;;;;;;;;;5027177;28;20431;-80
2022/10/14 07:16:04;;;;;;;0.20;0.20;;;;;;;;;;5031574;28;20831;-81
2022/10/14 07:18:30;;;;;;;1.25;0.50;;;;;;;;;;5013417;28;20648;-81
2022/10/14 07:20:56;;;;;;;0.50;0.40;;;;;;;;;;5013749;28;20509;-80
2022/10/14 07:23:22;;;;;;;0.17;0.17;;;;;;;;;;5031377;28;20458;-80
2022/10/14 07:25:48;;;;;;;0.30;0.30;;;;;;;;;;5031750;28;20422;-80
2022/10/14 07:28:14;;;;;;;0.10;0.10;;;;;;;;;;5030709;28;20777;-80
2022/10/14 07:30:40;;;;;;;0.10;0.10;;;;;;;;;;5014098;28;20523;-81
2022/10/14 07:33:07;;;;;;;0.10;0.10;;;;;;;;;;5012666;28;20427;-80
2022/10/14 07:35:34;;;;;;;0.57;0.57;;;;;;;;;;5015422;28;20439;-81
2022/10/14 07:38:00;;;;;;;0.35;0.35;;;;;;;;;;5012826;28;20435;-81
2022/10/14 07:40:26;;;;;;;0.70;0.40;;;;;;;;;;5012430;28;20427;-81
2022/10/14 07:42:52;;;;;;;0.10;0.10;;;;;;;;;;5031278;28;20415;-81
2022/10/14 07:45:20;;;;;;;0.10;0.10;;;;;;;;;;5029343;28;20498;-80
2022/10/14 07:47:50;;;;;;;0.10;0.10;;;;;;;;;;5002202;28;20423;-80
2022/10/14 07:50:16;;;;;;;0.30;0.30;;;;;;;;;;5012737;28;20422;-80
2022/10/14 07:52:42;;;;;;;0.40;0.30;;;;;;;;;;5020352;28;20423;-82
2022/10/14 07:55:08;;;;;;;0.60;0.60;;;;;;;;;;5031029;28;20442;-80
2022/10/14 07:57:34;;;;;;;0.50;0.50;;;;;;;;;;5006035;28;20511;-80
2022/10/14 08:00:02;;;;;;;0.10;0.10;;;;;;;;;;5010057;28;20427;-82
2022/10/14 08:02:28;;;;;;;0.10;0.10;;;;;;;;;;5008429;28;20431;-82
2022/10/14 08:04:54;;;;;;;0.13;0.13;;;;;;;;;;5027934;28;20581;-80
2022/10/14 08:07:21;;;;;;;0.10;0.10;;;;;;;;;;5027917;28;20431;-83
2022/10/14 08:09:47;;;;;;;0.55;0.55;;;;;;;;;;4997133;28;20512;-80
2022/10/14 08:12:13;;;;;;;0.10;0.10;;;;;;;;;;5013574;28;20430;-80
2022/10/14 08:14:39;;;;;;;0.10;0.10;;;;;;;;;;5012459;28;20430;-80
2022/10/14 08:17:05;;;;;;;0.40;0.40;;;;;;;;;;5010220;28;20427;-81
2022/10/14 08:19:31;;;;;;;0.20;0.20;;;;;;;;;;5029064;28;20427;-74
2022/10/14 08:21:57;;;;;;;0.20;0.20;;;;;;;;;;5032604;28;20422;-78
2022/10/14 08:24:23;;;;;;;0.30;0.30;;;;;;;;;;5017463;28;20501;-82
2022/10/14 08:26:54;;;;;;;0.10;0.10;;;;;;;;;;5005404;28;20482;-77
2022/10/14 08:29:23;;;;;;;0.30;0.30;;;;;;;;;;5013422;28;20432;-78
2022/10/14 08:31:50;;;;;;;0.10;0.10;;;;;;;;;;5014056;28;20428;-78
2022/10/14 08:34:19;;;;;;;0.40;0.40;;;;;;;;;;5029682;28;20984;-78
2022/10/14 08:36:46;;;;;;;0.00;0.00;;;;;;;;;;5026581;28;20426;-78
2022/10/14 08:39:13;;;;;;;0.20;0.20;;;;;;;;;;5001675;28;20428;-78
2022/10/14 08:41:57;;;;;;;0.10;0.10;;;;;;;;;;5004669;28;20886;-78
2022/10/14 08:44:28;;;;;;;0.30;0.30;;;;;;;;;;5034288;28;20426;-78
2022/10/14 08:46:55;;;;;;;0.10;0.10;;;;;;;;;;5034750;28;20433;-78
2022/10/14 08:49:21;;;;;;;1.55;0.35;;;;;;;;;;5015943;28;20509;-79
2022/10/14 08:51:51;;;;;;;1.00;0.60;;;;;;;;;;5017692;28;20813;-79
2022/10/14 08:54:40;;;;;;;2.20;0.90;;;;;;;;;;5013906;28;20466;-79
2022/10/14 08:57:12;;;;;;;0.32;0.25;;;;;;;;;;5009182;28;20435;-80
2022/10/14 08:59:40;;;;;;;0.10;0.10;;;;;;;;;;5016461;28;20458;-80
2022/10/14 09:02:36;;;;;;;0.60;0.50;;;;;;;;;;5013251;28;20441;-81
2022/10/14 09:05:03;;;;;;;0.30;0.30;;;;;;;;;;4998247;28;20957;-78
2022/10/14 09:07:30;;;;;;;1.20;0.90;;;;;;;;;;5015348;28;20427;-78
2022/10/14 09:10:00;;;;;;;3.53;0.93;;;;;;;;;;5015072;28;20928;-78
2022/10/14 09:12:28;;;;;;;0.70;0.70;;;;;;;;;;5014442;28;20938;-78
2022/10/14 09:15:07;;;;;;;1.58;1.05;;;;;;;;;;5011226;28;20427;-79
2022/10/14 09:17:40;;;;;;;0.13;0.13;;;;;;;;;;5025930;28;20845;-79
2022/10/14 09:20:15;;;;;;;2.97;0.85;;;;;;;;;;5010730;28;20802;-79
2022/10/14 09:22:41;;;;;;;0.13;0.13;;;;;;;;;;5015038;28;20445;-79
2022/10/14 09:25:14;;;;;;;0.70;0.30;;;;;;;;;;4998272;28;20431;-78
2022/10/14 09:27:41;;;;;;;0.10;0.10;;;;;;;;;;5032150;28;20431;-79
2022/10/14 09:30:13;;;;;;;0.47;0.47;;;;;;;;;;5000480;28;20437;-79
2022/10/14 09:32:40;;;;;;;0.10;0.10;;;;;;;;;;5023314;28;20771;-79
2022/10/14 09:35:14;;;;;;;1.50;0.70;;;;;;;;;;5029086;28;21018;-79
2022/10/14 09:37:41;;;;;;;0.15;0.15;;;;;;;;;;5014426;28;20526;-77
2022/10/14 09:40:08;;;;;;;2.90;1.10;;;;;;;;;;5011383;28;20498;-78
2022/10/14 09:43:00;;;;;;;0.38;0.38;;;;;;;;;;5021774;28;21515;-79
2022/10/14 09:45:28;;;;;;;0.80;0.40;;;;;;;;;;4965710;28;20456;-80
2022/10/14 09:47:57;;;;;;;2.50;0.40;;;;;;;;;;5009799;28;20936;-79
2022/10/14 09:50:23;;;;;;;0.40;0.30;;;;;;;;;;5027481;28;20431;-80
2022/10/14 09:52:52;;;;;;;0.63;0.25;;;;;;;;;;5011274;28;20507;-79
2022/10/14 09:55:20;;;;;;;0.77;0.77;;;;;;;;;;5014543;28;20962;-79
2022/10/14 09:57:46;;;;;;;3.60;0.70;;;;;;;;;;5011172;28;20451;-79
2022/10/14 10:00:27;;;;;;;0.40;0.40;;;;;;;;;;5026912;28;20431;-79
2022/10/14 10:02:54;;;;;;;0.50;0.50;;;;;;;;;;5005629;28;20485;-77
2022/10/14 10:05:23;;;;;;;2.10;1.10;;;;;;;;;;5006430;28;20434;-77
2022/10/14 10:08:04;;;;;;;0.20;0.20;;;;;;;;;;5014184;28;20447;-77
2022/10/14 10:10:30;;;;;;;0.20;0.20;;;;;;;;;;5029703;28;20427;-77
2022/10/14 10:12:59;;;;;;;1.60;1.45;;;;;;;;;;5029628;28;20439;-75
2022/10/14 10:15:25;;;;;;;0.40;0.40;;;;;;;;;;5027268;28;20418;-77
2022/10/14 10:17:52;;;;;;;0.20;0.20;;;;;;;;;;5022384;28;20416;-77
2022/10/14 10:20:27;;;;;;;1.30;1.20;;;;;;;;;;5001956;28;20427;-77
2022/10/14 10:22:53;;;;;;;0.57;0.57;;;;;;;;;;5012416;28;20430;-76
2022/10/14 10:25:24;;;;;;;0.30;0.30;;;;;;;;;;5012517;28;20461;-77
2022/10/14 10:27:51;;;;;;;1.10;0.50;;;;;;;;;;5012875;28;20423;-76
2022/10/14 10:30:20;;;;;;;0.25;0.25;;;;;;;;;;5012314;28;20437;-76
2022/10/14 10:32:51;;;;;;;0.38;0.38;;;;;;;;;;5031452;28;20423;-75
2022/10/14 10:35:36;;;;;;;0.30;0.30;;;;;;;;;;5014153;28;20423;-76
2022/10/14 10:38:02;;;;;;;0.30;0.30;;;;;;;;;;5029297;28;20461;-76
2022/10/14 10:40:38;;;;;;;1.00;0.47;;;;;;;;;;5002824;28;20429;-76
2022/10/14 10:43:24;;;;;;;0.10;0.10;;;;;;;;;;5021497;28;20419;-76
2022/10/14 10:46:05;;;;;;;0.30;0.30;;;;;;;;;;5012235;28;20430;-77
2022/10/14 10:48:39;;;;;;;0.10;0.10;;;;;;;;;;5030451;28;20458;-77
2022/10/14 10:51:06;;;;;;;0.20;0.20;;;;;;;;;;5010652;28;20527;-77
2022/10/14 10:53:41;;;;;;;0.10;0.10;;;;;;;;;;5025731;28;20419;-77
2022/10/14 10:56:22;;;;;;;0.10;0.10;;;;;;;;;;5029774;28;20457;-76
2022/10/14 10:58:58;;;;;;;0.80;0.80;;;;;;;;;;5030058;28;20809;-75
2022/10/14 11:01:37;;;;;;;0.20;0.20;;;;;;;;;;5028869;28;20462;-76
2022/10/14 11:04:35;;;;;;;0.20;0.20;;;;;;;;;;5010511;28;20436;-76
2022/10/14 11:12:50;;;;;;;0.10;0.10;;;;;;;;;;5013333;28;20771;-76
2022/10/14 11:15:27;;;;;;;0.20;0.20;;;;;;;;;;5028641;28;20438;-76
2022/10/14 11:17:56;;;;;;;0.10;0.10;;;;;;;;;;5030668;28;20402;-74
2022/10/14 11:21:00;;;;;;;0.20;0.20;;;;;;;;;;5027525;28;20443;-77
2022/10/14 11:23:26;;;;;;;0.10;0.10;;;;;;;;;;4967116;28;20436;-75
2022/10/14 11:25:52;;;;;;;0.15;0.15;;;;;;;;;;4959360;28;20453;-75
2022/10/14 11:28:24;;;;;;;0.20;0.20;;;;;;;;;;4989146;28;20419;-76
2022/10/14 11:31:06;;;;;;;0.10;0.10;;;;;;;;;;5012489;28;20435;-77
2022/10/14 11:33:48;;;;;;;0.05;0.05;;;;;;;;;;5010962;28;20433;-76
2022/10/14 11:36:17;;;;;;;0.73;0.17;;;;;;;;;;5022594;28;20435;-75
2022/10/14 11:38:47;;;;;;;0.10;0.10;;;;;;;;;;5012348;28;20435;-76
2022/10/14 11:41:16;;;;;;;0.10;0.10;;;;;;;;;;5009418;28;20533;-76
2022/10/14 11:44:04;;;;;;;0.00;0.00;;;;;;;;;;5030034;28;20940;-78
2022/10/14 11:46:34;;;;;;;0.10;0.10;;;;;;;;;;5028633;28;20430;-77
2022/10/14 11:49:02;;;;;;;0.20;0.20;;;;;;;;;;5031598;28;20414;-77
2022/10/14 11:51:39;;;;;;;0.30;0.30;;;;;;;;;;5029105;28;20506;-78
2022/10/14 11:54:11;;;;;;;0.10;0.10;;;;;;;;;;5012793;28;20432;-77
2022/10/14 11:56:40;;;;;;;0.10;0.10;;;;;;;;;;5013232;28;20412;-77
2022/10/14 11:59:20;;;;;;;0.20;0.20;;;;;;;;;;5014129;28;20498;-77
2022/10/14 12:01:47;;;;;;;0.10;0.10;;;;;;;;;;5029986;28;20426;-79
2022/10/14 12:04:24;;;;;;;0.10;0.10;;;;;;;;;;5013259;28;20418;-76
2022/10/14 12:06:52;;;;;;;0.10;0.10;;;;;;;;;;5027455;28;20427;-77
2022/10/14 12:09:24;;;;;;;0.20;0.20;;;;;;;;;;5004641;28;20995;-81
2022/10/14 12:11:52;;;;;;;0.10;0.10;;;;;;;;;;5028547;28;20774;-78
2022/10/14 12:14:29;;;;;;;0.20;0.20;;;;;;;;;;5028463;28;20475;-78
2022/10/14 12:16:58;;;;;;;0.32;0.32;;;;;;;;;;5013667;28;20445;-76
2022/10/14 12:19:26;;;;;;;0.20;0.20;;;;;;;;;;5012836;28;20465;-77
2022/10/14 12:22:11;;;;;;;0.10;0.10;;;;;;;;;;4998023;28;20449;-77
2022/10/14 12:24:39;;;;;;;0.60;0.50;;;;;;;;;;5021884;28;20941;-77
2022/10/14 12:27:06;;;;;;;0.10;0.10;;;;;;;;;;5013579;28;20423;-77
2022/10/14 12:29:34;;;;;;;0.10;0.10;;;;;;;;;;5030719;28;20423;-78
2022/10/14 12:32:03;;;;;;;0.32;0.32;;;;;;;;;;5019956;28;20858;-75
2022/10/14 12:34:33;;;;;;;0.10;0.10;;;;;;;;;;5029045;28;20417;-75
2022/10/14 12:37:00;;;;;;;0.10;0.10;;;;;;;;;;5027016;28;20508;-77
2022/10/14 12:39:33;;;;;;;2.10;0.70;;;;;;;;;;5005790;28;20492;-75
2022/10/14 12:42:02;;;;;;;0.00;0.00;;;;;;;;;;5028067;28;20435;-76
2022/10/14 12:44:33;;;;;;;0.10;0.10;;;;;;;;;;5018802;28;20461;-78
2022/10/14 12:46:59;;;;;;;0.53;0.43;;;;;;;;;;5023368;28;20833;-78
2022/10/14 12:49:28;;;;;;;0.17;0.17;;;;;;;;;;5009375;28;20428;-75
2022/10/14 12:51:55;;;;;;;0.10;0.10;;;;;;;;;;5011654;28;20435;-75
2022/10/14 12:54:22;;;;;;;0.10;0.10;;;;;;;;;;5026864;28;20445;-75
2022/10/14 12:57:01;;;;;;;0.10;0.10;;;;;;;;;;5027421;28;20418;-74
2022/10/14 12:59:35;;;;;;;0.10;0.10;;;;;;;;;;5009995;28;20408;-75
2022/10/14 13:02:04;;;;;;;0.10;0.10;;;;;;;;;;5027947;28;20450;-75
2022/10/14 13:04:30;;;;;;;0.10;0.10;;;;;;;;;;5027636;28;20914;-76
2022/10/14 13:07:27;;;;;;;0.10;0.10;;;;;;;;;;5028231;28;20498;-78
2022/10/14 13:09:57;;;;;;;0.10;0.10;;;;;;;;;;5006385;28;20634;-75
2022/10/14 13:12:23;;;;;;;0.15;0.15;;;;;;;;;;5030885;28;20426;-73
2022/10/14 13:14:57;;;;;;;0.30;0.30;;;;;;;;;;5028086;28;20432;-76
2022/10/14 13:17:35;;;;;;;0.10;0.10;;;;;;;;;;5024249;28;20489;-75
2022/10/14 13:20:03;;;;;;;0.20;0.20;;;;;;;;;;5022688;28;20437;-73
2022/10/14 13:22:30;;;;;;;0.10;0.10;;;;;;;;;;5027898;28;20765;-76
2022/10/14 13:25:08;;;;;;;0.10;0.10;;;;;;;;;;5002324;28;20516;-75
2022/10/14 13:27:40;;;;;;;0.10;0.10;;;;;;;;;;5029990;28;20430;-77
2022/10/14 13:30:12;;;;;;;0.10;0.10;;;;;;;;;;5004037;28;20491;-76
2022/10/14 13:32:42;;;;;;;0.10;0.10;;;;;;;;;;5029701;28;20493;-74
2022/10/14 13:35:15;;;;;;;0.10;0.10;;;;;;;;;;5031685;28;20450;-75
2022/10/14 13:37:44;;;;;;;0.10;0.10;;;;;;;;;;5028862;28;20436;-79
2022/10/14 13:40:34;;;;;;;0.10;0.10;;;;;;;;;;5014261;28;20450;-75
2022/10/14 13:43:02;;;;;;;0.10;0.10;;;;;;;;;;5019377;28;20457;-75
2022/10/14 13:45:31;;;;;;;0.95;0.25;;;;;;;;;;5020900;28;20438;-78
2022/10/14 13:47:57;;;;;;;0.20;0.20;;;;;;;;;;5009132;28;20431;-77
2022/10/14 13:50:27;;;;;;;0.27;0.27;;;;;;;;;;5028208;28;20446;-77
2022/10/14 13:52:58;;;;;;;0.10;0.10;;;;;;;;;;5011779;28;20437;-77
2022/10/14 13:55:25;;;;;;;0.10;0.10;;;;;;;;;;4996238;28;20439;-76
2022/10/14 13:58:01;;;;;;;0.10;0.10;;;;;;;;;;5031440;28;20430;-77
2022/10/14 14:00:27;;;;;;;0.10;0.10;;;;;;;;;;5032024;28;20506;-77
2022/10/14 14:02:53;;;;;;;0.10;0.10;;;;;;;;;;5006543;28;20429;-77
2022/10/14 14:05:20;;;;;;;0.13;0.13;;;;;;;;;;5014560;28;20435;-77
2022/10/14 14:07:47;;;;;;;0.47;0.38;;;;;;;;;;5014342;28;20420;-77
2022/10/14 14:10:17;;;;;;;0.10;0.10;;;;;;;;;;5022634;28;20458;-77
2022/10/14 14:12:43;;;;;;;0.30;0.30;;;;;;;;;;5032650;28;20469;-77
2022/10/14 14:15:18;;;;;;;1.55;0.40;;;;;;;;;;5031230;28;20434;-77
2022/10/14 14:17:44;;;;;;;0.50;0.50;;;;;;;;;;5014088;28;20427;-77
2022/10/14 14:20:11;;;;;;;0.10;0.10;;;;;;;;;;5030422;28;20813;-76
2022/10/14 14:22:42;;;;;;;0.10;0.10;;;;;;;;;;5009964;28;20428;-78
2022/10/14 14:25:09;;;;;;;0.10;0.10;;;;;;;;;;5004169;28;20500;-76
2022/10/14 14:27:36;;;;;;;0.35;0.35;;;;;;;;;;5014701;28;20438;-77
2022/10/14 14:30:07;;;;;;;0.10;0.10;;;;;;;;;;4997008;28;20431;-77
2022/10/14 14:32:35;;;;;;;0.20;0.20;;;;;;;;;;5029978;28;20901;-77
2022/10/14 14:35:03;;;;;;;0.10;0.10;;;;;;;;;;5030163;28;20418;-77
2022/10/14 14:37:31;;;;;;;0.10;0.10;;;;;;;;;;5014051;28;20934;-77
2022/10/14 14:39:58;;;;;;;0.10;0.10;;;;;;;;;;5008426;28;20441;-77
2022/10/14 14:42:26;;;;;;;0.10;0.10;;;;;;;;;;5031287;28;20513;-77
2022/10/14 14:44:54;;;;;;;0.13;0.13;;;;;;;;;;5030538;28;20906;-77
2022/10/14 14:47:21;;;;;;;0.20;0.20;;;;;;;;;;5030771;28;20833;-77
2022/10/14 14:49:47;;;;;;;0.10;0.10;;;;;;;;;;5011994;28;20435;-78
2022/10/14 14:52:14;;;;;;;0.10;0.10;;;;;;;;;;5009254;28;20428;-77
2022/10/14 14:54:43;;;;;;;0.10;0.10;;;;;;;;;;5024151;28;20902;-78
2022/10/14 14:57:09;;;;;;;0.30;0.30;;;;;;;;;;5029040;28;20427;-79
2022/10/14 14:59:40;;;;;;;0.10;0.10;;;;;;;;;;5029794;28;20505;-79